createdAt,value
2019-02-07T00:01:48.822Z,2.37
2019-02-07T00:04:18.232Z,3.53
2019-02-07T00:06:47.974Z,2.40
2019-02-07T00:09:17.365Z,2.07
2019-02-07T00:11:47.328Z,2.60
2019-02-07T00:14:16.742Z,1.43
2019-02-07T00:16:46.165Z,1.80
2019-02-07T00:19:17.070Z,1.50
2019-02-07T00:21:46.620Z,1.50
2019-02-07T00:24:16.017Z,1.77
2019-02-07T00:26:45.719Z,1.97
2019-02-07T00:29:15.114Z,2.13
2019-02-07T00:31:44.512Z,1.70
2019-02-07T00:34:13.883Z,2.07
2019-02-07T00:36:43.293Z,1.23
2019-02-07T00:39:13.303Z,2.10
2019-02-07T00:41:42.732Z,1.40
2019-02-07T00:44:12.150Z,0.90
2019-02-07T00:46:41.584Z,2.43
2019-02-07T00:49:10.986Z,0.90
2019-02-07T00:51:40.463Z,0.93
2019-02-07T00:54:09.886Z,0.80
2019-02-07T00:56:39.791Z,0.80
2019-02-07T00:59:10.078Z,0.97
2019-02-07T01:01:39.452Z,0.70
2019-02-07T01:04:11.091Z,0.80
2019-02-07T01:06:40.904Z,0.70
2019-02-07T01:09:11.144Z,1.00
2019-02-07T01:11:40.840Z,0.80
2019-02-07T01:14:10.239Z,0.80
2019-02-07T01:16:39.591Z,0.80
2019-02-07T01:19:09.070Z,1.20
2019-02-07T01:21:38.429Z,1.00
2019-02-07T01:24:08.102Z,1.30
2019-02-07T01:26:37.527Z,1.37
2019-02-07T01:29:07.252Z,1.80
2019-02-07T01:31:36.654Z,1.07
2019-02-07T01:34:06.221Z,1.10
2019-02-07T01:36:35.565Z,1.17
2019-02-07T01:39:08.075Z,0.90
2019-02-07T01:41:37.575Z,1.03
2019-02-07T01:44:07.015Z,1.27
2019-02-07T01:46:36.441Z,1.87
2019-02-07T01:49:05.944Z,1.13
2019-02-07T01:51:37.366Z,1.40
2019-02-07T01:54:06.922Z,1.20
2019-02-07T01:56:36.477Z,1.80
2019-02-07T01:59:06.155Z,1.50
2019-02-07T02:01:35.540Z,1.40
2019-02-07T02:04:04.905Z,1.43
2019-02-07T02:09:21.954Z,1.50
2019-02-07T02:11:55.340Z,1.87
2019-02-07T02:14:27.618Z,1.63
2019-02-07T02:16:57.351Z,1.70
2019-02-07T02:19:35.293Z,1.80
2019-02-07T02:22:10.495Z,2.03
2019-02-07T02:24:41.374Z,1.97
2019-02-07T02:27:12.891Z,1.77
2019-02-07T02:29:42.350Z,1.77
2019-02-07T02:32:24.598Z,1.83
2019-02-07T02:35:15.896Z,2.13
2019-02-07T02:37:45.419Z,2.60
2019-02-07T02:40:40.735Z,3.00
2019-02-07T02:43:10.155Z,2.03
2019-02-07T02:45:39.613Z,2.53
2019-02-07T02:48:11.938Z,3.90
2019-02-07T02:50:43.616Z,3.63
2019-02-07T02:53:13.336Z,3.10
2019-02-07T02:55:44.242Z,3.93
2019-02-07T02:58:13.628Z,3.77
2019-02-07T03:01:01.065Z,4.13
2019-02-07T03:03:51.539Z,4.43
2019-02-07T03:06:29.891Z,5.00
2019-02-07T03:09:13.380Z,5.37
2019-02-07T03:11:53.041Z,5.43
2019-02-07T03:14:56.885Z,5.43
2019-02-07T03:17:56.795Z,4.70
2019-02-07T03:20:45.100Z,5.13
2019-02-07T03:23:32.502Z,6.23
2019-02-07T03:29:27.111Z,5.77
2019-02-07T03:32:27.503Z,7.23
2019-02-07T03:35:22.989Z,7.33
2019-02-07T03:38:08.539Z,6.73
2019-02-07T03:41:12.174Z,9.67
2019-02-07T03:44:00.462Z,8.57
2019-02-07T03:46:51.868Z,8.77
2019-02-07T03:49:46.065Z,9.03
2019-02-07T03:55:46.969Z,10.40
2019-02-07T03:58:31.064Z,8.57
2019-02-07T04:01:19.339Z,8.43
2019-02-07T04:04:04.733Z,9.50
2019-02-07T04:07:08.191Z,8.70
2019-02-07T04:09:54.089Z,7.03
2019-02-07T04:12:45.480Z,9.67
2019-02-07T04:15:23.172Z,8.70
2019-02-07T04:21:23.922Z,9.00
2019-02-07T04:24:30.430Z,10.10
2019-02-07T04:27:11.587Z,9.63
2019-02-07T04:29:56.850Z,8.60
2019-02-07T04:32:54.305Z,9.50
2019-02-07T04:35:51.801Z,8.17
2019-02-07T04:38:34.233Z,8.83
2019-02-07T04:44:27.221Z,8.63
2019-02-07T04:47:24.851Z,8.47
2019-02-07T04:50:19.310Z,16.27
2019-02-07T04:53:00.344Z,20.17
2019-02-07T04:55:59.825Z,18.10
2019-02-07T04:59:06.375Z,12.70
2019-02-07T05:04:53.211Z,15.07
2019-02-07T05:11:02.149Z,13.27
2019-02-07T05:13:50.396Z,16.40
2019-02-07T05:16:43.720Z,13.73
2019-02-07T05:19:40.475Z,12.53
2019-02-07T05:25:35.643Z,15.13
2019-02-07T05:28:24.426Z,15.73
2019-02-07T05:31:15.752Z,15.20
2019-02-07T05:34:13.345Z,17.73
2019-02-07T05:37:17.354Z,14.87
2019-02-07T05:40:09.419Z,13.30
2019-02-07T05:43:03.127Z,14.70
2019-02-07T05:45:54.675Z,14.07
2019-02-07T05:48:42.948Z,12.83
2019-02-07T05:51:43.376Z,17.53
2019-02-07T05:54:30.689Z,14.53
2019-02-07T05:57:31.710Z,14.37
2019-02-07T06:00:15.508Z,13.57
2019-02-07T06:03:03.896Z,14.03
2019-02-07T06:05:50.856Z,14.70
2019-02-07T06:08:37.321Z,14.13
2019-02-07T06:11:31.098Z,15.00
2019-02-07T06:14:13.714Z,12.00
2019-02-07T06:17:14.343Z,13.70
2019-02-07T06:20:02.634Z,13.07
2019-02-07T06:22:42.051Z,13.10
2019-02-07T06:25:34.234Z,14.10
2019-02-07T06:28:21.110Z,13.80
2019-02-07T06:31:21.526Z,16.50
2019-02-07T06:34:07.597Z,24.97
2019-02-07T06:36:58.741Z,16.43
2019-02-07T06:39:47.050Z,16.57
2019-02-07T06:42:42.219Z,20.73
2019-02-07T06:45:20.946Z,22.33
2019-02-07T06:48:18.307Z,23.50
2019-02-07T06:51:05.455Z,24.17
2019-02-07T06:53:52.748Z,24.20
2019-02-07T06:56:41.005Z,19.90
2019-02-07T06:59:22.988Z,25.70
2019-02-07T07:02:10.319Z,29.17
2019-02-07T07:05:16.755Z,33.17
2019-02-07T07:08:04.000Z,41.87
2019-02-07T07:10:45.707Z,24.47
2019-02-07T07:13:40.154Z,28.57
2019-02-07T07:16:28.480Z,27.93
2019-02-07T07:19:11.801Z,24.70
2019-02-07T07:22:15.655Z,24.07
2019-02-07T07:25:02.618Z,27.83
2019-02-07T07:27:52.367Z,33.37
2019-02-07T07:30:40.240Z,38.30
2019-02-07T07:33:20.863Z,43.47
2019-02-07T07:36:09.215Z,50.80
2019-02-07T07:39:04.505Z,46.73
2019-02-07T07:42:02.021Z,36.20
2019-02-07T07:44:46.047Z,26.30
2019-02-07T07:47:36.037Z,33.97
2019-02-07T07:50:20.591Z,29.87
2019-02-07T07:53:11.741Z,28.90
2019-02-07T07:55:48.691Z,14.27
2019-02-07T07:58:36.066Z,19.33
2019-02-07T08:01:24.630Z,25.47
2019-02-07T08:04:01.786Z,16.37
2019-02-07T08:06:42.392Z,9.33
2019-02-07T08:09:34.654Z,9.37
2019-02-07T08:12:32.350Z,9.47
2019-02-07T08:15:14.501Z,10.70
2019-02-07T08:17:55.693Z,9.73
2019-02-07T08:20:56.827Z,13.90
2019-02-07T08:23:37.709Z,14.53
2019-02-07T08:26:24.959Z,13.17
2019-02-07T08:29:13.223Z,17.13
2019-02-07T08:32:01.604Z,17.60
2019-02-07T08:34:55.935Z,17.90
2019-02-07T08:37:42.940Z,20.50
2019-02-07T08:40:31.315Z,16.43
2019-02-07T08:43:22.662Z,20.47
2019-02-07T08:46:10.025Z,27.40
2019-02-07T08:49:00.998Z,16.53
2019-02-07T08:51:47.810Z,16.73
2019-02-07T08:54:36.208Z,15.20
2019-02-07T08:57:27.377Z,14.30
2019-02-07T09:00:14.813Z,14.47
2019-02-07T09:03:05.873Z,16.10
2019-02-07T09:06:03.621Z,18.90
2019-02-07T09:08:58.115Z,11.20
2019-02-07T09:11:45.431Z,14.20
2019-02-07T09:14:25.861Z,13.07
2019-02-07T09:17:14.588Z,8.37
2019-02-07T09:20:12.154Z,8.63
2019-02-07T09:23:10.364Z,10.63
2019-02-07T09:26:09.792Z,8.70
2019-02-07T09:29:03.239Z,8.07
2019-02-07T09:31:48.267Z,11.40
2019-02-07T09:34:36.591Z,11.10
2019-02-07T09:37:17.943Z,11.40
2019-02-07T09:39:57.049Z,9.10
2019-02-07T09:42:44.050Z,11.87
2019-02-07T09:45:47.614Z,11.07
2019-02-07T09:48:41.870Z,11.90
2019-02-07T09:51:48.673Z,10.40
2019-02-07T09:54:37.019Z,11.27
2019-02-07T09:57:25.329Z,9.33
2019-02-07T10:00:06.411Z,13.33
2019-02-07T10:02:43.018Z,11.37
2019-02-07T10:05:27.544Z,11.67
2019-02-07T10:08:16.027Z,13.70
2019-02-07T10:11:06.915Z,11.07
2019-02-07T10:13:53.955Z,12.67
2019-02-07T10:16:41.127Z,11.57
2019-02-07T10:19:32.196Z,10.70
2019-02-07T10:22:20.518Z,13.63
2019-02-07T10:25:17.761Z,12.67
2019-02-07T10:28:08.898Z,11.07
2019-02-07T10:30:53.819Z,11.87
2019-02-07T10:33:43.399Z,11.73
2019-02-07T10:36:25.028Z,11.50
2019-02-07T10:39:08.217Z,10.23
2019-02-07T10:41:55.150Z,11.83
2019-02-07T10:44:42.786Z,11.50
2019-02-07T10:47:43.245Z,12.00
2019-02-07T10:50:26.260Z,14.27
2019-02-07T10:53:13.364Z,17.87
2019-02-07T10:56:04.874Z,13.90
2019-02-07T10:58:53.203Z,12.60
2019-02-07T11:01:34.471Z,11.50
2019-02-07T11:04:26.793Z,12.93
2019-02-07T11:07:11.259Z,16.50
2019-02-07T11:10:11.791Z,16.87
2019-02-07T11:13:03.186Z,11.27
2019-02-07T11:15:50.180Z,16.53
2019-02-07T11:18:41.363Z,12.33
2019-02-07T11:21:33.953Z,10.37
2019-02-07T11:24:20.952Z,13.40
2019-02-07T11:27:12.302Z,19.23
2019-02-07T11:30:03.426Z,15.00
2019-02-07T11:33:10.053Z,11.70
2019-02-07T11:35:54.126Z,11.20
2019-02-07T11:38:45.399Z,12.33
2019-02-07T11:41:45.782Z,17.27
2019-02-07T11:44:36.910Z,11.63
2019-02-07T11:47:25.094Z,11.63
2019-02-07T11:50:12.210Z,10.37
2019-02-07T11:53:09.230Z,15.00
2019-02-07T11:56:00.316Z,10.97
2019-02-07T11:58:54.483Z,12.97
2019-02-07T12:01:54.871Z,16.93
2019-02-07T12:04:37.599Z,13.90
2019-02-07T12:07:41.091Z,15.67
2019-02-07T12:10:31.075Z,19.93
2019-02-07T12:13:25.398Z,19.47
2019-02-07T12:16:20.288Z,16.00
2019-02-07T12:19:18.186Z,12.57
2019-02-07T12:22:04.355Z,18.70
2019-02-07T12:24:51.239Z,21.60
2019-02-07T12:27:40.219Z,10.20
2019-02-07T12:30:34.793Z,15.10
2019-02-07T12:33:29.497Z,13.60
2019-02-07T12:36:21.434Z,14.87
2019-02-07T12:39:07.200Z,10.63
2019-02-07T12:42:01.501Z,10.07
2019-02-07T12:44:49.644Z,13.47
2019-02-07T12:47:36.906Z,12.57
2019-02-07T12:50:26.467Z,15.73
2019-02-07T12:53:17.852Z,12.13
2019-02-07T12:56:21.418Z,15.43
2019-02-07T12:59:09.288Z,11.47
2019-02-07T13:01:56.283Z,10.73
2019-02-07T13:04:49.566Z,12.10
2019-02-07T13:07:46.219Z,11.37
2019-02-07T13:10:35.386Z,18.00
2019-02-07T13:13:28.975Z,21.53
2019-02-07T13:16:16.397Z,12.73
2019-02-07T13:19:04.919Z,13.80
2019-02-07T13:21:53.858Z,11.80
2019-02-07T13:24:42.144Z,11.60
2019-02-07T13:27:36.179Z,11.13
2019-02-07T13:30:26.580Z,16.43
2019-02-07T13:33:20.908Z,10.43
2019-02-07T13:36:12.452Z,18.03
2019-02-07T13:38:56.472Z,18.33
2019-02-07T13:42:02.919Z,11.17
2019-02-07T13:44:49.553Z,12.10
2019-02-07T13:47:44.618Z,11.93
2019-02-07T13:50:35.845Z,10.77
2019-02-07T13:53:23.174Z,12.27
2019-02-07T13:56:14.261Z,16.23
2019-02-07T13:59:02.542Z,16.13
2019-02-07T14:01:50.842Z,16.17
2019-02-07T14:04:37.267Z,16.33
2019-02-07T14:07:25.715Z,17.13
2019-02-07T14:10:10.014Z,11.50
2019-02-07T14:12:58.360Z,14.27
2019-02-07T14:15:52.977Z,20.37
2019-02-07T14:18:43.226Z,11.87
2019-02-07T14:21:40.841Z,11.47
2019-02-07T14:24:32.408Z,13.47
2019-02-07T14:27:19.626Z,14.17
2019-02-07T14:30:10.906Z,15.00
2019-02-07T14:32:56.977Z,15.47
2019-02-07T14:36:00.658Z,18.13
2019-02-07T14:38:48.012Z,17.73
2019-02-07T14:41:39.900Z,16.53
2019-02-07T14:44:21.930Z,14.63
2019-02-07T14:46:51.964Z,18.83
2019-02-07T14:49:21.578Z,13.83
2019-02-07T14:51:51.005Z,12.27
2019-02-07T14:54:20.455Z,11.90
2019-02-07T14:56:49.772Z,10.27
2019-02-07T14:59:19.098Z,10.73
2019-02-07T15:01:48.620Z,7.50
2019-02-07T15:04:18.081Z,10.93
2019-02-07T15:06:47.482Z,8.10
2019-02-07T15:09:18.932Z,8.53
2019-02-07T15:11:48.382Z,10.77
2019-02-07T15:14:18.011Z,10.33
2019-02-07T15:16:47.858Z,8.37
2019-02-07T15:19:17.371Z,9.90
2019-02-07T15:21:46.726Z,11.47
2019-02-07T15:24:16.127Z,14.93
2019-02-07T15:26:45.506Z,14.60
2019-02-07T15:29:16.151Z,16.07
2019-02-07T15:31:45.728Z,10.63
2019-02-07T15:34:17.560Z,11.77
2019-02-07T15:36:49.404Z,13.63
2019-02-07T15:39:19.969Z,12.87
2019-02-07T15:41:49.458Z,15.50
2019-02-07T15:44:19.176Z,13.40
2019-02-07T15:46:48.539Z,18.80
2019-02-07T15:49:18.156Z,11.30
2019-02-07T15:51:48.214Z,12.67
2019-02-07T15:54:17.573Z,10.23
2019-02-07T15:56:46.900Z,11.60
2019-02-07T15:59:24.189Z,17.10
2019-02-07T16:02:00.771Z,10.80
2019-02-07T16:04:39.516Z,12.90
2019-02-07T16:07:08.915Z,12.47
2019-02-07T16:09:38.309Z,14.67
2019-02-07T16:12:07.775Z,13.07
2019-02-07T16:14:37.214Z,13.07
2019-02-07T16:17:06.611Z,11.13
2019-02-07T16:19:35.975Z,13.97
2019-02-07T16:22:06.282Z,13.00
2019-02-07T16:24:35.624Z,16.83
2019-02-07T16:27:05.256Z,17.87
2019-02-07T16:29:34.700Z,16.57
2019-02-07T16:32:05.269Z,15.00
2019-02-07T16:34:34.970Z,17.20
2019-02-07T16:37:04.356Z,22.60
2019-02-07T16:39:33.812Z,20.30
2019-02-07T16:42:09.004Z,21.93
2019-02-07T16:44:38.506Z,26.00
2019-02-07T16:47:08.021Z,20.93
2019-02-07T16:49:37.345Z,22.20
2019-02-07T16:52:06.755Z,16.93
2019-02-07T16:54:36.214Z,18.83
2019-02-07T16:57:05.645Z,16.00
2019-02-07T16:59:35.041Z,16.63
2019-02-07T17:02:04.895Z,17.47
2019-02-07T17:04:34.281Z,21.77
2019-02-07T17:07:03.813Z,16.03
2019-02-07T17:09:36.727Z,17.73
2019-02-07T17:12:06.810Z,18.97
2019-02-07T17:14:36.171Z,18.00
2019-02-07T17:17:06.758Z,16.57
2019-02-07T17:19:36.149Z,17.63
2019-02-07T17:22:05.880Z,30.90
2019-02-07T17:24:35.317Z,20.13
2019-02-07T17:27:05.074Z,21.53
2019-02-07T17:29:34.733Z,16.67
2019-02-07T17:32:04.987Z,19.20
2019-02-07T17:34:34.447Z,20.83
2019-02-07T17:37:03.827Z,24.47
2019-02-07T17:39:33.458Z,20.40
2019-02-07T17:42:03.261Z,19.73
2019-02-07T17:44:33.562Z,17.60
2019-02-07T17:47:03.003Z,16.10
2019-02-07T17:49:32.458Z,19.53
2019-02-07T17:52:01.806Z,20.57
2019-02-07T17:54:31.207Z,16.80
2019-02-07T17:57:01.034Z,16.13
2019-02-07T17:59:30.497Z,20.43
2019-02-07T18:01:59.868Z,18.93
2019-02-07T18:04:29.269Z,17.90
2019-02-07T18:07:00.752Z,14.73
2019-02-07T18:09:30.221Z,19.30
2019-02-07T18:12:00.303Z,20.23
2019-02-07T18:14:29.879Z,15.67
2019-02-07T18:16:59.330Z,18.33
2019-02-07T18:19:29.480Z,18.20
2019-02-07T18:21:59.592Z,16.07
2019-02-07T18:24:29.161Z,19.40
2019-02-07T18:26:58.985Z,16.97
2019-02-07T18:29:28.634Z,16.47
2019-02-07T18:31:58.122Z,18.63
2019-02-07T18:34:27.462Z,17.17
2019-02-07T18:36:57.125Z,15.60
2019-02-07T18:39:27.377Z,14.00
2019-02-07T18:41:57.220Z,16.23
2019-02-07T18:44:26.730Z,15.33
2019-02-07T18:46:56.221Z,18.57
2019-02-07T18:49:25.702Z,17.70
2019-02-07T18:51:55.536Z,18.20
2019-02-07T18:54:25.010Z,16.87
2019-02-07T18:56:54.713Z,19.10
2019-02-07T18:59:24.145Z,20.17
2019-02-07T19:01:53.556Z,19.67
2019-02-07T19:04:22.983Z,16.13
2019-02-07T19:06:52.426Z,14.60
2019-02-07T19:09:21.887Z,15.97
2019-02-07T19:11:51.699Z,14.80
2019-02-07T19:14:21.216Z,16.03
2019-02-07T19:16:50.784Z,16.33
2019-02-07T19:19:20.438Z,14.23
2019-02-07T19:21:56.839Z,18.47
2019-02-07T19:24:21.332Z,15.10
2019-02-07T19:26:51.233Z,15.33
2019-02-07T19:29:20.552Z,14.60
2019-02-07T19:31:50.073Z,15.90
2019-02-07T19:34:19.676Z,13.10
2019-02-07T19:36:49.064Z,17.93
2019-02-07T19:39:18.649Z,17.20
2019-02-07T19:41:48.640Z,29.63
2019-02-07T19:44:18.169Z,15.93
2019-02-07T19:46:47.583Z,17.30
2019-02-07T19:49:17.133Z,20.30
2019-02-07T19:51:47.158Z,14.63
2019-02-07T19:54:16.698Z,15.00
2019-02-07T19:56:46.552Z,16.23
2019-02-07T19:59:16.025Z,14.00
2019-02-07T20:01:45.424Z,15.23
2019-02-07T20:04:15.016Z,14.50
2019-02-07T20:06:44.508Z,14.03
2019-02-07T20:09:14.470Z,16.80
2019-02-07T20:11:44.317Z,28.80
2019-02-07T20:14:13.931Z,32.60
2019-02-07T20:16:43.352Z,53.53
2019-02-07T20:19:13.346Z,56.90
2019-02-07T20:21:42.791Z,77.40
2019-02-07T20:24:12.218Z,74.67
2019-02-07T20:26:41.909Z,82.33
2019-02-07T20:29:11.537Z,73.90
2019-02-07T20:31:40.927Z,69.00
2019-02-07T20:34:10.347Z,78.77
2019-02-07T20:36:40.017Z,59.53
2019-02-07T20:39:14.027Z,60.23
2019-02-07T20:41:43.955Z,59.23
2019-02-07T20:44:13.534Z,61.07
2019-02-07T20:46:43.015Z,56.87
2019-02-07T20:49:12.437Z,49.67
2019-02-07T20:51:42.042Z,47.30
2019-02-07T20:54:11.495Z,47.33
2019-02-07T20:56:40.935Z,32.93
2019-02-07T20:59:10.366Z,32.67
2019-02-07T21:01:39.838Z,28.60
2019-02-07T21:04:09.223Z,24.07
2019-02-07T21:06:38.725Z,24.77
2019-02-07T21:09:10.366Z,24.47
2019-02-07T21:11:39.855Z,23.47
2019-02-07T21:14:09.228Z,22.27
2019-02-07T21:16:40.009Z,21.23
2019-02-07T21:19:09.386Z,22.60
2019-02-07T21:21:38.736Z,22.37
2019-02-07T21:24:08.162Z,25.60
2019-02-07T21:26:37.567Z,20.13
2019-02-07T21:29:06.931Z,18.73
2019-02-07T21:31:36.717Z,18.10
2019-02-07T21:34:09.363Z,16.87
2019-02-07T21:36:38.775Z,15.33
2019-02-07T21:39:11.495Z,16.93
2019-02-07T21:41:40.955Z,16.47
2019-02-07T21:44:10.462Z,16.50
2019-02-07T21:46:40.209Z,19.67
2019-02-07T21:49:09.706Z,19.73
2019-02-07T21:51:39.151Z,18.67
2019-02-07T21:54:08.681Z,19.23
2019-02-07T21:56:38.164Z,19.10
2019-02-07T21:59:07.659Z,22.30
2019-02-07T22:01:37.079Z,20.53
2019-02-07T22:04:06.573Z,21.53
2019-02-07T22:06:36.087Z,21.27
2019-02-07T22:09:11.621Z,18.53
2019-02-07T22:11:41.182Z,18.03
2019-02-07T22:14:10.650Z,17.40
2019-02-07T22:16:40.388Z,20.47
2019-02-07T22:19:09.905Z,21.20
2019-02-07T22:21:39.322Z,21.33
2019-02-07T22:24:08.757Z,20.03
2019-02-07T22:26:38.161Z,19.53
2019-02-07T22:29:07.607Z,19.87
2019-02-07T22:31:39.232Z,20.60
2019-02-07T22:34:08.620Z,19.70
2019-02-07T22:36:38.032Z,20.97
2019-02-07T22:39:08.468Z,28.90
2019-02-07T22:41:37.798Z,29.30
2019-02-07T22:44:07.223Z,28.40
2019-02-07T22:46:37.072Z,30.87
2019-02-07T22:49:07.517Z,28.33
2019-02-07T22:51:38.517Z,27.83
2019-02-07T22:54:07.871Z,31.77
2019-02-07T22:56:45.083Z,27.60
2019-02-07T22:59:08.320Z,26.97
2019-02-07T23:01:47.125Z,28.90
2019-02-07T23:04:17.153Z,25.10
2019-02-07T23:06:46.698Z,23.57
2019-02-07T23:09:18.837Z,26.77
2019-02-07T23:11:48.641Z,23.57
2019-02-07T23:14:18.021Z,26.60
2019-02-07T23:16:47.437Z,25.43
2019-02-07T23:19:16.942Z,25.80
2019-02-07T23:21:46.431Z,26.33
2019-02-07T23:24:15.886Z,27.10
2019-02-07T23:26:45.302Z,27.20
2019-02-07T23:29:14.675Z,37.63
2019-02-07T23:31:44.095Z,29.27
2019-02-07T23:34:13.465Z,27.27
2019-02-07T23:36:42.880Z,21.87
2019-02-07T23:39:12.537Z,21.27
2019-02-07T23:41:41.967Z,20.23
2019-02-07T23:44:11.516Z,17.80
2019-02-07T23:46:41.067Z,18.47
2019-02-07T23:49:10.436Z,17.30
2019-02-07T23:51:39.908Z,18.70
2019-02-07T23:54:09.458Z,18.50
2019-02-07T23:56:38.872Z,17.30
2019-02-07T23:59:08.475Z,17.27
